Time;durP1;ratioP1;P1;durP2;ratioP2;P2;SDS_P1;SDS_P2;PMS_P1;PMS_P2;Temp;Humidity;BMP_temperature;BMP_pressure;BME280_temperature;BME280_humidity;BME280_pressure;Samples;Min_cycle;Max_cycle;Signal;HPM_P1;HPM_P2
2023/06/14 00:00:14;;;;;;;;;9.00;8.20;;;;;19.01;40.88;98989.50;5067659;28;8878;-74
2023/06/14 00:03:05;;;;;;;;;12.00;8.80;;;;;19.08;40.71;98992.63;5069119;28;8870;-75
2023/06/14 00:05:38;;;;;;;;;11.00;8.00;;;;;19.09;40.68;98991.69;5068854;28;8927;-75
2023/06/14 00:08:07;;;;;;;;;8.40;8.40;;;;;19.10;40.83;98990.69;5069925;28;8853;-74
2023/06/14 00:10:37;;;;;;;;;10.60;10.60;;;;;19.13;41.00;98987.84;5071574;28;8836;-75
2023/06/14 00:13:07;;;;;;;;;16.20;15.00;;;;;19.13;41.54;98980.72;5070123;28;8945;-75
2023/06/14 00:15:36;;;;;;;;;13.00;13.00;;;;;19.11;41.59;98990.63;5070064;28;9584;-75
2023/06/14 00:18:07;;;;;;;;;14.80;14.80;;;;;19.10;42.33;98988.03;5070038;28;8870;-75
2023/06/14 00:20:36;;;;;;;;;14.00;13.60;;;;;19.08;42.35;98988.16;5018596;28;8881;-75
2023/06/14 00:23:04;;;;;;;;;12.40;11.20;;;;;19.08;42.35;98990.84;5070000;28;8858;-74
2023/06/14 00:25:33;;;;;;;;;17.00;15.20;;;;;19.08;42.45;98985.50;5072542;28;8863;-75
2023/06/14 00:28:02;;;;;;;;;11.00;11.00;;;;;19.09;42.57;99000.50;5069725;28;8858;-75
2023/06/14 00:30:31;;;;;;;;;12.80;10.60;;;;;19.10;42.87;98985.38;5069847;28;8858;-75
2023/06/14 00:33:00;;;;;;;;;15.60;15.60;;;;;19.09;42.97;98986.34;5069855;28;8866;-74
2023/06/14 00:35:30;;;;;;;;;16.60;15.60;;;;;19.09;43.10;98979.19;5101670;28;8846;-75
2023/06/14 00:37:59;;;;;;;;;16.40;16.40;;;;;19.07;42.75;98985.59;5102158;28;8963;-75
2023/06/14 00:40:28;;;;;;;;;15.00;15.00;;;;;19.02;43.17;98983.22;5069878;28;8855;-75
2023/06/14 00:42:57;;;;;;;;;16.00;15.60;;;;;18.93;43.62;98975.81;5121833;27;9621;-76
2023/06/14 00:45:26;;;;;;;;;19.40;16.20;;;;;18.90;43.62;98981.38;5081586;28;8852;-74
2023/06/14 00:47:55;;;;;;;;;15.40;15.40;;;;;18.80;44.21;98974.91;5104144;28;8890;-75
2023/06/14 00:50:25;;;;;;;;;14.80;14.80;;;;;18.76;44.06;98974.22;5088246;28;8944;-75
2023/06/14 00:52:55;;;;;;;;;14.80;14.80;;;;;18.75;43.96;98980.50;5088739;28;8859;-74
2023/06/14 00:55:26;;;;;;;;;13.60;12.00;;;;;18.73;43.96;98969.94;5087146;28;8839;-75
2023/06/14 00:57:56;;;;;;;;;12.20;12.20;;;;;18.70;44.33;98971.94;5070265;28;8864;-76
2023/06/14 01:00:28;;;;;;;;;10.20;10.20;;;;;18.64;44.76;98970.53;5100582;28;8862;-74
2023/06/14 01:02:57;;;;;;;;;9.20;9.20;;;;;18.63;44.95;98975.94;5084918;28;8858;-75
2023/06/14 01:05:26;;;;;;;;;11.20;9.20;;;;;18.59;45.56;98975.31;5068994;28;8849;-75
2023/06/14 01:08:15;;;;;;;;;9.00;9.00;;;;;18.72;45.66;98970.91;5101299;28;8854;-74
2023/06/14 01:10:53;;;;;;;;;9.80;8.60;;;;;18.70;45.62;98962.16;5103910;27;8848;-75
2023/06/14 01:13:28;;;;;;;;;10.00;10.00;;;;;18.63;46.07;98968.84;5067759;28;8876;-74
2023/06/14 01:15:57;;;;;;;;;11.40;10.20;;;;;18.60;46.27;98971.69;5084067;28;8896;-74
2023/06/14 01:18:29;;;;;;;;;6.00;6.00;;;;;18.58;46.47;98970.94;5077326;28;8858;-75
2023/06/14 01:20:59;;;;;;;;;10.40;10.40;;;;;18.61;46.29;98969.88;5101198;28;8862;-74
2023/06/14 01:23:32;;;;;;;;;11.80;11.80;;;;;18.62;46.46;98968.94;5067196;28;8890;-75
2023/06/14 01:26:03;;;;;;;;;13.40;13.00;;;;;18.60;46.48;98966.38;5087693;28;9671;-74
2023/06/14 01:28:36;;;;;;;;;13.40;13.40;;;;;18.64;46.56;98967.88;5087525;28;8871;-75
2023/06/14 01:31:08;;;;;;;;;9.00;9.00;;;;;18.63;46.76;98970.63;5087481;28;8859;-74
2023/06/14 01:33:38;;;;;;;;;13.40;13.00;;;;;18.59;46.96;98970.00;5069743;28;8843;-75
2023/06/14 01:36:10;;;;;;;;;13.80;13.80;;;;;18.62;47.19;98974.25;5086734;28;8836;-74
2023/06/14 01:38:43;;;;;;;;;15.40;14.20;;;;;18.61;47.01;98972.53;5085330;28;8926;-75
2023/06/14 01:41:12;;;;;;;;;15.00;14.60;;;;;18.61;46.90;98976.06;5048852;28;8842;-75
2023/06/14 01:43:43;;;;;;;;;9.20;8.20;;;;;18.55;47.22;98966.66;5068897;28;8842;-76
2023/06/14 01:46:14;;;;;;;;;13.40;12.00;;;;;18.53;47.36;98971.22;5068080;28;8838;-74
2023/06/14 01:48:43;;;;;;;;;15.40;14.20;;;;;18.52;47.32;98971.31;5068326;28;8988;-75
2023/06/14 01:51:12;;;;;;;;;13.60;12.40;;;;;18.48;47.37;98969.81;5083790;28;8904;-74
2023/06/14 01:53:42;;;;;;;;;14.40;14.40;;;;;18.50;47.36;98968.75;5049617;28;9008;-74
2023/06/14 01:56:12;;;;;;;;;14.80;13.40;;;;;18.45;47.48;98970.00;5068898;28;8934;-75
2023/06/14 01:58:40;;;;;;;;;9.40;8.00;;;;;18.38;48.05;98976.66;5066299;28;8952;-75
2023/06/14 02:01:11;;;;;;;;;11.00;10.60;;;;;18.35;48.10;98975.03;5032688;28;8866;-75
2023/06/14 02:03:40;;;;;;;;;12.00;9.60;;;;;18.31;48.48;98979.69;5100576;28;8834;-74
2023/06/14 02:06:10;;;;;;;;;7.00;7.00;;;;;18.29;48.84;98983.38;5068051;28;8857;-75
2023/06/14 02:08:42;;;;;;;;;9.80;9.80;;;;;18.25;48.64;98977.44;5083404;28;8870;-74
2023/06/14 02:11:11;;;;;;;;;14.20;14.20;;;;;18.26;48.32;98975.63;5071614;28;8854;-76
2023/06/14 02:13:40;;;;;;;;;19.20;17.00;;;;;18.24;48.16;98978.38;5086942;28;8844;-74
2023/06/14 02:16:09;;;;;;;;;12.80;12.80;;;;;18.20;48.32;98982.16;5103339;28;8851;-75
2023/06/14 02:18:39;;;;;;;;;12.40;12.40;;;;;18.24;48.18;98982.84;5087012;28;8964;-75
2023/06/14 02:21:08;;;;;;;;;6.40;6.40;;;;;18.18;48.56;98981.41;5086292;28;8972;-75
2023/06/14 02:23:37;;;;;;;;;9.20;7.00;;;;;18.21;49.00;98989.19;5088006;28;8840;-75
2023/06/14 02:26:07;;;;;;;;;8.60;7.20;;;;;18.20;49.06;98986.63;5081674;28;8944;-76
2023/06/14 02:28:36;;;;;;;;;6.00;6.00;;;;;18.18;49.52;98985.88;5083223;28;8880;-75
2023/06/14 02:31:05;;;;;;;;;4.80;4.80;;;;;18.17;49.64;98979.69;5067431;28;8851;-75
2023/06/14 02:33:34;;;;;;;;;7.80;7.60;;;;;18.18;49.52;98988.53;5068208;28;8935;-74
2023/06/14 02:36:03;;;;;;;;;8.60;6.80;;;;;18.18;49.87;98985.88;5083660;28;8858;-75
2023/06/14 02:38:35;;;;;;;;;8.40;7.40;;;;;18.20;49.69;98981.31;5067969;28;8905;-74
2023/06/14 02:41:05;;;;;;;;;9.80;9.80;;;;;18.19;49.90;98983.09;5101602;27;8858;-74
2023/06/14 02:43:36;;;;;;;;;8.60;8.60;;;;;18.20;50.11;98983.97;5067321;28;8870;-75
2023/06/14 02:46:08;;;;;;;;;9.00;6.80;;;;;18.15;50.35;98984.25;5082433;28;8855;-75
2023/06/14 02:48:36;;;;;;;;;8.00;8.00;;;;;18.14;50.36;98978.09;5066142;28;8881;-74
2023/06/14 02:51:08;;;;;;;;;11.20;9.00;;;;;18.13;50.48;98981.66;5066512;28;8873;-75
2023/06/14 02:53:37;;;;;;;;;9.20;7.80;;;;;18.14;50.85;98979.91;5065844;28;8838;-76
2023/06/14 02:56:06;;;;;;;;;6.20;6.20;;;;;18.12;51.01;98981.78;5068987;28;8865;-75
2023/06/14 02:58:37;;;;;;;;;10.60;10.60;;;;;18.16;50.67;98981.50;5077253;28;8870;-74
2023/06/14 03:01:07;;;;;;;;;9.80;9.80;;;;;18.21;50.76;98983.00;5099368;28;8876;-76
2023/06/14 03:03:36;;;;;;;;;8.80;8.80;;;;;18.21;50.67;98986.53;5099732;28;8846;-75
2023/06/14 03:06:05;;;;;;;;;9.20;9.20;;;;;18.19;50.74;98988.41;5067351;28;8862;-75
2023/06/14 03:08:39;;;;;;;;;17.20;16.20;;;;;18.14;50.69;98985.22;5099440;28;8947;-76
2023/06/14 03:11:14;;;;;;;;;15.00;13.20;;;;;18.08;50.92;98986.44;5068419;28;8854;-75
2023/06/14 03:13:45;;;;;;;;;13.00;12.00;;;;;17.76;52.51;98996.34;5031561;28;8878;-75
2023/06/14 03:16:15;;;;;;;;;29.00;25.80;;;;;17.73;52.38;98989.38;5065783;28;8875;-75
2023/06/14 03:18:44;;;;;;;;;36.50;31.75;;;;;17.76;51.84;98988.34;5082722;28;8862;-75
2023/06/14 03:21:15;;;;;;;;;29.00;26.40;;;;;17.84;51.66;98985.25;5082470;28;8877;-75
2023/06/14 03:23:45;;;;;;;;;14.60;12.00;;;;;17.93;51.96;98996.16;5068271;28;8861;-76
2023/06/14 03:26:17;;;;;;;;;12.00;11.20;;;;;17.97;51.92;99000.34;5074093;28;8850;-75
2023/06/14 03:28:49;;;;;;;;;12.00;11.00;;;;;18.07;51.95;98995.34;5086595;28;8858;-74
2023/06/14 03:31:19;;;;;;;;;11.60;11.60;;;;;17.98;52.17;98990.56;5103397;28;8953;-75
2023/06/14 03:33:49;;;;;;;;;10.00;10.00;;;;;17.86;52.79;98991.31;5079324;28;8894;-75
2023/06/14 03:36:19;;;;;;;;;8.80;8.80;;;;;17.78;53.00;99005.06;5103161;28;8850;-75
2023/06/14 03:38:48;;;;;;;;;9.00;9.00;;;;;17.84;52.77;99007.34;5051732;28;8924;-75
2023/06/14 03:41:18;;;;;;;;;7.80;7.80;;;;;17.87;52.76;99004.53;5055760;28;8931;-76
2023/06/14 03:43:49;;;;;;;;;8.40;7.60;;;;;17.82;53.33;99003.94;5051227;28;8846;-74
2023/06/14 03:46:18;;;;;;;;;20.40;20.00;;;;;17.81;53.50;98998.69;5088058;28;8974;-75
2023/06/14 03:48:46;;;;;;;;;50.40;40.60;;;;;17.97;52.93;99000.34;5086313;28;8834;-75
2023/06/14 03:51:16;;;;;;;;;16.40;15.00;;;;;18.07;52.56;99007.81;5051253;28;8974;-74
2023/06/14 03:53:44;;;;;;;;;10.00;9.80;;;;;18.15;52.22;99003.72;5103025;28;9003;-75
2023/06/14 03:56:33;;;;;;;;;7.40;7.40;;;;;18.32;51.81;99008.00;5072779;28;8850;-75
2023/06/14 03:59:08;;;;;;;;;8.40;8.00;;;;;18.41;51.67;99011.06;5068830;28;8858;-76
2023/06/14 04:01:37;;;;;;;;;8.00;7.20;;;;;18.54;51.32;99007.53;5079745;28;8866;-74
2023/06/14 04:04:05;;;;;;;;;8.40;8.00;;;;;18.67;51.05;99006.78;5086053;28;8940;-72
2023/06/14 04:06:35;;;;;;;;;7.80;6.80;;;;;18.81;50.48;99009.44;5085764;28;8857;-72
2023/06/14 04:09:05;;;;;;;;;7.20;7.20;;;;;19.02;50.04;99009.00;5091451;28;8831;-72
2023/06/14 04:11:35;;;;;;;;;25.20;23.00;;;;;19.05;49.80;99012.31;5088136;28;8852;-72
2023/06/14 04:14:04;;;;;;;;;13.20;11.60;;;;;19.19;49.76;99018.56;5090047;28;8940;-72
2023/06/14 04:16:34;;;;;;;;;8.20;8.20;;;;;19.23;49.53;99014.75;5078019;28;8857;-73
2023/06/14 04:19:04;;;;;;;;;6.80;6.80;;;;;19.18;49.69;99023.06;5085534;28;8870;-72
2023/06/14 04:21:34;;;;;;;;;8.20;7.20;;;;;19.18;49.66;99014.19;5085270;28;8850;-72
2023/06/14 04:24:06;;;;;;;;;5.40;4.80;;;;;19.23;49.34;99020.06;5101433;28;8882;-73
2023/06/14 04:26:36;;;;;;;;;6.00;5.40;;;;;19.23;49.57;99018.25;5087492;28;8826;-72
2023/06/14 04:29:05;;;;;;;;;6.20;6.20;;;;;19.33;49.36;99023.88;5085465;28;8846;-78
2023/06/14 04:31:44;;;;;;;;;9.60;9.60;;;;;19.38;49.14;99026.22;5068728;28;9001;-74
2023/06/14 04:34:16;;;;;;;;;13.40;11.60;;;;;19.38;49.24;99027.06;5087928;28;9992;-75
2023/06/14 04:36:53;;;;;;;;;35.00;30.60;;;;;19.42;49.16;99025.88;5110649;27;9639;-75
2023/06/14 04:39:27;;;;;;;;;11.80;11.60;;;;;19.49;48.76;99024.53;5068683;28;8956;-74
2023/06/14 04:42:00;;;;;;;;;6.80;6.60;;;;;19.52;48.69;99023.53;5085667;28;8886;-74
2023/06/14 04:44:31;;;;;;;;;3.40;3.00;;;;;19.45;49.09;99025.69;5104452;28;8901;-75
2023/06/14 04:47:07;;;;;;;;;6.40;6.40;;;;;19.42;48.89;99033.03;5105892;28;8913;-77
2023/06/14 04:49:36;;;;;;;;;5.40;5.40;;;;;19.43;48.86;99038.28;5089213;28;8940;-74
2023/06/14 04:52:09;;;;;;;;;5.80;5.80;;;;;19.45;49.06;99038.19;5088280;28;8851;-74
2023/06/14 04:54:42;;;;;;;;;6.00;6.00;;;;;19.55;48.86;99039.31;5104553;28;8963;-74
2023/06/14 04:57:16;;;;;;;;;6.00;6.00;;;;;19.68;48.33;99034.00;5098886;28;8882;-74
2023/06/14 04:59:47;;;;;;;;;7.40;6.20;;;;;19.76;48.33;99033.50;5067292;28;8858;-75
2023/06/14 05:02:18;;;;;;;;;6.40;5.60;;;;;19.78;48.33;99040.41;5116550;27;8909;-74
2023/06/14 05:04:47;;;;;;;;;6.60;6.20;;;;;19.83;48.06;99030.31;5084919;28;8894;-74
2023/06/14 05:07:16;;;;;;;;;6.60;5.60;;;;;19.93;47.98;99043.03;5102600;28;8866;-74
2023/06/14 05:09:46;;;;;;;;;6.00;6.00;;;;;20.00;47.78;99041.66;5088890;28;8866;-74
2023/06/14 05:12:18;;;;;;;;;6.60;5.20;;;;;20.04;47.50;99041.31;5086103;28;8864;-72
2023/06/14 05:14:47;;;;;;;;;6.00;6.00;;;;;20.13;47.21;99039.84;5103186;27;8955;-72
2023/06/14 05:17:20;;;;;;;;;9.00;8.80;;;;;20.19;47.04;99035.91;5101266;28;8869;-77
2023/06/14 05:19:48;;;;;;;;;7.00;7.00;;;;;20.25;47.05;99040.84;5069932;28;8854;-76
2023/06/14 05:22:17;;;;;;;;;9.40;8.60;;;;;20.34;46.85;99042.88;5082881;28;8858;-77
2023/06/14 05:24:48;;;;;;;;;10.60;7.60;;;;;20.45;46.78;99045.66;5070900;28;8866;-76
2023/06/14 05:27:17;;;;;;;;;6.40;6.20;;;;;20.55;47.01;99056.53;5085295;28;8819;-78
2023/06/14 05:29:46;;;;;;;;;6.20;6.00;;;;;20.60;46.01;99053.56;5086598;28;8867;-77
2023/06/14 05:32:15;;;;;;;;;8.60;7.00;;;;;20.44;45.15;99043.97;5068731;28;8869;-77
2023/06/14 05:34:46;;;;;;;;;6.60;6.60;;;;;20.19;45.21;99043.91;5069706;28;8997;-76
2023/06/14 05:37:15;;;;;;;;;7.00;7.00;;;;;20.24;45.09;99053.34;5071233;28;9617;-75
2023/06/14 05:39:43;;;;;;;;;7.60;7.60;;;;;20.18;45.45;99044.84;5086952;28;8986;-76
2023/06/14 05:42:13;;;;;;;;;7.80;6.80;;;;;20.20;45.15;99043.81;5079623;28;8863;-77
2023/06/14 05:44:41;;;;;;;;;5.60;5.60;;;;;20.12;44.28;99043.47;5074593;28;8892;-76
2023/06/14 05:47:10;;;;;;;;;7.40;7.00;;;;;20.20;44.21;99048.28;5087567;28;8848;-77
2023/06/14 05:49:39;;;;;;;;;7.80;7.80;;;;;20.03;43.77;99041.44;5078300;28;8863;-75
2023/06/14 05:52:11;;;;;;;;;7.40;7.00;;;;;20.11;41.72;99047.09;5055801;28;8891;-80
2023/06/14 05:54:41;;;;;;;;;7.00;6.60;;;;;19.94;41.03;99039.41;5075090;28;8879;-77
2023/06/14 05:57:10;;;;;;;;;8.40;7.40;;;;;20.11;41.82;99049.78;5087017;28;8851;-78
2023/06/14 05:59:40;;;;;;;;;7.40;7.40;;;;;19.92;41.93;99058.19;5088379;28;8847;-79
2023/06/14 06:02:09;;;;;;;;;9.20;9.20;;;;;20.27;40.88;99057.59;5087194;28;8932;-76
2023/06/14 06:04:38;;;;;;;;;9.00;9.00;;;;;20.28;41.31;99059.31;5084330;28;8963;-78
2023/06/14 06:07:07;;;;;;;;;11.60;9.60;;;;;20.43;41.27;99065.41;5109063;27;8832;-76
2023/06/14 06:09:37;;;;;;;;;9.00;8.80;;;;;20.74;40.56;99068.59;5087863;28;8840;-77
2023/06/14 06:12:08;;;;;;;;;8.00;8.00;;;;;21.01;39.49;99072.00;5078309;28;8866;-76
2023/06/14 06:14:36;;;;;;;;;9.40;9.40;;;;;21.03;39.07;99072.75;5066710;28;8893;-77
2023/06/14 06:17:06;;;;;;;;;11.60;10.00;;;;;21.03;39.32;99067.41;5067631;28;8858;-78
2023/06/14 06:19:35;;;;;;;;;7.20;7.20;;;;;20.94;39.22;99081.41;5065115;28;8856;-77
2023/06/14 06:22:06;;;;;;;;;6.80;6.80;;;;;21.02;39.50;99079.03;5065147;28;9788;-75
2023/06/14 06:24:34;;;;;;;;;8.20;7.60;;;;;20.95;39.86;99090.28;5064484;28;8879;-76
2023/06/14 06:27:07;;;;;;;;;6.80;6.80;;;;;20.95;40.48;99075.09;5065039;28;8921;-76
2023/06/14 06:29:36;;;;;;;;;10.00;7.40;;;;;21.05;39.71;99078.81;5054199;28;8838;-77
2023/06/14 06:32:06;;;;;;;;;10.40;8.40;;;;;21.20;39.60;99078.66;5084906;28;8853;-75
2023/06/14 06:34:37;;;;;;;;;11.80;11.20;;;;;21.35;39.78;99080.25;5035114;28;8885;-76
2023/06/14 06:37:07;;;;;;;;;9.40;8.60;;;;;21.61;38.50;99072.13;5068086;28;8869;-79
2023/06/14 06:39:36;;;;;;;;;8.60;8.00;;;;;21.33;38.29;99074.13;5084494;28;9000;-75
2023/06/14 06:42:06;;;;;;;;;9.60;8.80;;;;;21.54;38.54;99077.06;5064813;28;8848;-76
2023/06/14 06:44:38;;;;;;;;;8.60;8.60;;;;;21.71;37.72;99074.97;5065038;28;8832;-77
2023/06/14 06:47:09;;;;;;;;;11.00;10.00;;;;;21.77;38.42;99078.03;5064443;28;8832;-77
2023/06/14 06:49:38;;;;;;;;;7.00;7.00;;;;;21.89;37.59;99088.78;5066521;28;8864;-77
2023/06/14 06:52:08;;;;;;;;;8.20;8.20;;;;;21.88;37.63;99079.91;5080571;28;8846;-77
2023/06/14 06:54:36;;;;;;;;;1.20;1.20;;;;;21.46;36.79;99090.13;5066409;28;8862;-76
2023/06/14 06:57:07;;;;;;;;;9.00;6.60;;;;;21.60;37.44;99081.13;5032227;28;8844;-78
2023/06/14 06:59:36;;;;;;;;;10.00;9.40;;;;;21.74;36.65;99083.63;5074429;28;8870;-77
2023/06/14 07:02:06;;;;;;;;;5.40;5.40;;;;;22.06;37.03;99088.34;5066641;28;8884;-77
2023/06/14 07:04:35;;;;;;;;;10.20;9.20;;;;;22.15;37.46;99097.53;5066912;28;8870;-77
2023/06/14 07:07:04;;;;;;;;;9.00;9.00;;;;;22.28;36.01;99089.41;5082094;28;8858;-80
2023/06/14 07:09:33;;;;;;;;;8.00;7.20;;;;;22.16;35.85;99104.56;5067082;28;8889;-77
2023/06/14 07:12:02;;;;;;;;;9.80;8.60;;;;;22.23;34.93;99100.44;5066551;28;8850;-76
2023/06/14 07:14:32;;;;;;;;;8.60;7.60;;;;;22.29;34.22;99102.69;5064852;28;8898;-75
2023/06/14 07:17:01;;;;;;;;;6.00;6.00;;;;;22.26;34.12;99104.75;5032367;28;8854;-76
2023/06/14 07:19:30;;;;;;;;;8.80;8.80;;;;;22.33;34.37;99109.50;5080959;28;8956;-77
2023/06/14 07:21:59;;;;;;;;;10.80;10.80;;;;;22.25;32.98;99105.69;5098605;28;8959;-77
2023/06/14 07:24:29;;;;;;;;;9.60;8.20;;;;;22.44;33.46;99111.34;5076233;28;8879;-79
2023/06/14 07:26:58;;;;;;;;;6.60;6.60;;;;;22.22;33.49;99113.00;5051495;28;8880;-77
2023/06/14 07:29:27;;;;;;;;;9.80;9.60;;;;;22.31;33.50;99115.97;5066710;28;8955;-76
2023/06/14 07:31:57;;;;;;;;;9.00;9.00;;;;;22.00;34.72;99115.59;5067484;28;9646;-79
2023/06/14 07:34:27;;;;;;;;;9.20;9.20;;;;;22.06;35.08;99114.28;5082099;28;8834;-77
2023/06/14 07:36:56;;;;;;;;;9.00;8.40;;;;;22.02;35.46;99114.50;5070168;28;8849;-77
2023/06/14 07:39:24;;;;;;;;;9.80;9.80;;;;;22.14;35.55;99111.88;5086534;28;8893;-78
2023/06/14 07:41:53;;;;;;;;;9.80;9.60;;;;;22.25;34.74;99113.72;5074796;28;8840;-76
2023/06/14 07:44:22;;;;;;;;;8.40;7.80;;;;;22.37;34.30;99116.34;5068391;28;8925;-77
2023/06/14 07:46:51;;;;;;;;;9.80;8.80;;;;;22.54;34.93;99111.50;5065300;28;8908;-78
2023/06/14 07:49:21;;;;;;;;;5.00;5.00;;;;;22.49;34.88;99114.53;5066187;28;8889;-77
2023/06/14 07:51:50;;;;;;;;;9.80;9.40;;;;;22.57;34.27;99122.81;5045521;28;8819;-79
2023/06/14 07:54:20;;;;;;;;;6.60;6.60;;;;;22.47;33.68;99119.16;5066127;28;8877;-77
2023/06/14 07:56:50;;;;;;;;;9.80;7.80;;;;;22.63;33.51;99115.28;5066241;28;8869;-78
2023/06/14 07:59:18;;;;;;;;;7.00;7.00;;;;;22.52;34.32;99119.63;5031194;28;8904;-76
2023/06/14 08:01:47;;;;;;;;;7.80;7.80;;;;;22.56;33.71;99122.94;5030906;28;8850;-76
2023/06/14 08:04:16;;;;;;;;;9.00;8.60;;;;;22.74;33.62;99126.03;5030791;28;8870;-77
2023/06/14 08:06:47;;;;;;;;;9.20;9.20;;;;;22.90;33.20;99123.88;5065646;28;8850;-76
2023/06/14 08:09:17;;;;;;;;;11.00;9.40;;;;;22.69;33.64;99128.19;5064935;28;9540;-76
2023/06/14 08:11:45;;;;;;;;;14.40;12.00;;;;;23.06;33.48;99128.00;5070074;28;8851;-77
2023/06/14 08:14:14;;;;;;;;;9.00;9.00;;;;;23.12;33.55;99122.16;5068920;28;8901;-79
2023/06/14 08:16:43;;;;;;;;;9.40;9.20;;;;;22.64;32.47;99125.00;5069003;28;8952;-76
2023/06/14 08:19:12;;;;;;;;;7.60;7.40;;;;;22.62;30.71;99135.88;5068258;28;9075;-77
2023/06/14 08:21:41;;;;;;;;;7.40;7.40;;;;;22.46;30.79;99138.03;5069682;28;8878;-75
2023/06/14 08:24:12;;;;;;;;;7.20;7.20;;;;;22.66;31.34;99140.03;5068773;28;8885;-77
2023/06/14 08:26:41;;;;;;;;;10.80;10.40;;;;;22.54;31.95;99143.63;5101609;28;8861;-75
2023/06/14 08:29:10;;;;;;;;;9.40;9.40;;;;;22.48;32.50;99139.59;5070306;28;8941;-76
2023/06/14 08:31:39;;;;;;;;;9.40;9.40;;;;;22.65;32.22;99138.28;5087810;28;8863;-76
2023/06/14 08:34:08;;;;;;;;;12.60;10.60;;;;;22.43;32.69;99136.44;5075255;28;8997;-75
2023/06/14 08:36:37;;;;;;;;;9.40;9.40;;;;;22.64;32.80;99135.72;5069083;28;8893;-77
2023/06/14 08:39:06;;;;;;;;;12.00;10.60;;;;;22.55;32.59;99142.69;5101636;28;8964;-79
2023/06/14 08:41:37;;;;;;;;;8.20;8.20;;;;;22.79;32.33;99140.75;5068865;28;8894;-77
2023/06/14 08:44:07;;;;;;;;;8.00;7.20;;;;;22.94;32.56;99143.22;5050564;28;8870;-76
2023/06/14 08:46:38;;;;;;;;;9.60;9.40;;;;;22.96;32.91;99141.31;5081891;28;8863;-78
2023/06/14 08:49:08;;;;;;;;;9.20;9.20;;;;;23.33;33.07;99139.19;5069190;28;9080;-75
2023/06/14 08:51:37;;;;;;;;;12.00;12.00;;;;;23.44;33.43;99137.47;5069519;28;8869;-75
2023/06/14 08:54:06;;;;;;;;;10.20;9.60;;;;;23.49;32.72;99137.97;5069714;28;8939;-77
2023/06/14 08:56:42;;;;;;;;;9.80;9.00;;;;;23.49;32.54;99135.28;5093925;28;8851;-77
2023/06/14 08:59:12;;;;;;;;;10.60;9.80;;;;;23.54;31.66;99128.56;5088420;28;8879;-78
2023/06/14 09:01:41;;;;;;;;;8.60;8.60;;;;;23.59;30.97;99133.56;5087368;28;8886;-79
2023/06/14 09:04:24;;;;;;;;;7.80;7.00;;;;;23.74;30.78;99129.63;5079219;28;8854;-77
2023/06/14 09:06:54;;;;;;;;;8.80;8.80;;;;;23.73;31.69;99130.63;5026143;28;8870;-77
2023/06/14 09:09:24;;;;;;;;;9.20;8.60;;;;;23.53;31.77;99131.41;5090756;28;8865;-77
2023/06/14 09:11:54;;;;;;;;;9.60;9.60;;;;;23.82;31.95;99131.66;5084170;28;8898;-78
2023/06/14 09:14:25;;;;;;;;;7.40;7.20;;;;;23.73;30.07;99133.28;5049980;28;8846;-78
2023/06/14 09:16:54;;;;;;;;;7.80;7.00;;;;;23.72;29.94;99134.25;5039626;28;8865;-78
2023/06/14 09:19:25;;;;;;;;;7.00;7.00;;;;;23.93;29.94;99130.78;5105031;28;8844;-77
2023/06/14 09:21:55;;;;;;;;;9.00;8.00;;;;;24.14;30.76;99120.94;5073757;28;8880;-75
2023/06/14 09:24:26;;;;;;;;;7.60;6.80;;;;;24.18;30.53;99128.75;5056945;28;8877;-77
2023/06/14 09:26:57;;;;;;;;;9.00;8.40;;;;;23.69;29.91;99122.94;5064669;28;8947;-76
2023/06/14 09:29:27;;;;;;;;;7.60;7.60;;;;;23.99;30.07;99126.72;5063476;28;9609;-77
2023/06/14 09:31:56;;;;;;;;;7.00;6.80;;;;;23.96;30.50;99126.00;5065810;28;8852;-77
2023/06/14 09:34:25;;;;;;;;;8.00;6.80;;;;;24.12;30.45;99133.59;5048259;28;8889;-77
2023/06/14 09:36:56;;;;;;;;;8.40;7.40;;;;;23.86;29.15;99124.22;5062297;28;8831;-79
2023/06/14 09:39:25;;;;;;;;;9.00;8.40;;;;;23.84;28.81;99123.50;5055097;28;8870;-76
2023/06/14 09:41:54;;;;;;;;;9.00;9.00;;;;;23.95;29.29;99126.97;5045339;28;8862;-79
2023/06/14 09:44:28;;;;;;;;;6.80;6.40;;;;;24.07;29.74;99121.56;5045012;28;8889;-80
2023/06/14 09:46:57;;;;;;;;;3.40;3.40;;;;;23.91;30.04;99116.63;5037992;28;8938;-76
2023/06/14 09:49:26;;;;;;;;;9.60;8.80;;;;;23.88;30.50;99111.50;5045695;28;8897;-76
2023/06/14 09:51:59;;;;;;;;;10.00;9.00;;;;;24.37;30.29;99115.44;4999828;28;8921;-77
2023/06/14 09:54:30;;;;;;;;;8.20;7.80;;;;;24.22;30.67;99117.59;5049638;28;8836;-77
2023/06/14 09:57:00;;;;;;;;;9.00;8.40;;;;;24.26;30.94;99115.50;5055029;28;9051;-78
2023/06/14 09:59:33;;;;;;;;;8.60;8.60;;;;;24.21;30.67;99120.44;5071525;28;8878;-78
2023/06/14 10:02:12;;;;;;;;;9.40;8.00;;;;;24.35;31.57;99117.41;5089533;28;8836;-77
2023/06/14 10:04:47;;;;;;;;;7.20;7.20;;;;;24.19;31.36;99117.00;5069092;28;8889;-78
2023/06/14 10:07:20;;;;;;;;;7.80;7.80;;;;;24.40;31.32;99114.34;5068071;28;8885;-79
2023/06/14 10:09:50;;;;;;;;;9.20;8.60;;;;;24.48;30.87;99119.91;5067668;28;8877;-79
2023/06/14 10:12:21;;;;;;;;;8.20;8.20;;;;;24.49;30.63;99117.09;5067842;28;8877;-78
2023/06/14 10:14:53;;;;;;;;;6.80;6.80;;;;;24.50;29.16;99115.25;5083956;28;8877;-77
2023/06/14 10:17:48;;;;;;;;;4.40;4.40;;;;;24.57;28.79;99115.56;5083268;28;8846;-76
2023/06/14 10:20:26;;;;;;;;;7.20;7.00;;;;;24.15;28.06;99117.28;5070475;28;8913;-76
2023/06/14 10:23:02;;;;;;;;;8.20;7.60;;;;;24.38;28.93;99106.41;5086068;28;8854;-79
2023/06/14 10:25:32;;;;;;;;;6.60;6.60;;;;;24.15;30.08;99109.22;5068986;28;9033;-78
2023/06/14 10:28:16;;;;;;;;;6.00;6.00;;;;;24.49;29.74;99114.41;5067234;28;8869;-78
2023/06/14 10:31:05;;;;;;;;;6.80;5.80;;;;;24.65;29.52;99100.47;5067987;28;8935;-79
2023/06/14 10:33:35;;;;;;;;;7.40;7.40;;;;;24.35;28.83;99110.19;5048699;28;8850;-78
2023/06/14 10:36:11;;;;;;;;;8.00;7.40;;;;;24.11;29.21;99094.31;5076011;28;8861;-78
2023/06/14 10:38:40;;;;;;;;;7.20;7.20;;;;;24.18;29.65;99091.16;5093245;28;8890;-77
2023/06/14 10:41:10;;;;;;;;;5.60;4.80;;;;;24.01;28.63;99092.53;5087713;28;8856;-78
2023/06/14 10:43:38;;;;;;;;;6.00;6.00;;;;;23.98;28.03;99101.72;5066881;28;8854;-77
2023/06/14 10:46:22;;;;;;;;;7.00;7.00;;;;;23.98;28.46;99088.28;5099987;28;8884;-79
2023/06/14 10:48:58;;;;;;;;;6.20;5.20;;;;;24.21;29.34;99085.53;5067209;28;8854;-77
2023/06/14 10:51:31;;;;;;;;;6.60;6.40;;;;;24.54;29.69;99093.34;5066059;28;8858;-78
2023/06/14 10:54:00;;;;;;;;;8.80;7.80;;;;;24.22;28.68;99081.84;5067515;28;8885;-78
2023/06/14 10:56:30;;;;;;;;;7.00;7.00;;;;;24.07;29.19;99090.19;5066850;28;8869;-79
2023/06/14 10:59:02;;;;;;;;;9.00;8.60;;;;;24.30;28.76;99088.28;5073133;28;9001;-76
2023/06/14 11:01:41;;;;;;;;;8.40;8.40;;;;;24.77;28.93;99082.44;5034645;28;8842;-79
2023/06/14 11:04:11;;;;;;;;;8.00;7.60;;;;;24.50;28.90;99093.75;5102096;28;8894;-78
2023/06/14 11:06:49;;;;;;;;;6.40;6.40;;;;;24.66;28.64;99075.31;5100861;28;8896;-77
2023/06/14 11:10:06;;;;;;;;;8.20;8.20;;;;;24.63;28.67;99085.47;5035729;28;8866;-77
2023/06/14 11:12:37;;;;;;;;;8.00;8.00;;;;;24.67;28.69;99078.84;4997576;28;9017;-77
2023/06/14 11:15:07;;;;;;;;;7.20;7.00;;;;;24.83;28.48;99075.69;5024624;28;8879;-74
2023/06/14 11:17:37;;;;;;;;;9.40;8.60;;;;;25.04;28.37;99073.78;5008153;28;8859;-67
2023/06/14 11:20:10;;;;;;;;;8.80;7.80;;;;;25.07;27.94;99072.66;5023966;28;8863;-69
2023/06/14 11:22:42;;;;;;;;;7.00;7.00;;;;;25.55;27.48;99065.69;5024159;28;8918;-71
2023/06/14 11:25:12;;;;;;;;;6.20;6.20;;;;;25.85;27.38;99067.41;5023995;28;8954;-66
2023/06/14 11:27:43;;;;;;;;;9.00;9.00;;;;;26.02;27.20;99061.34;5024504;28;8863;-70
2023/06/14 11:30:14;;;;;;;;;8.40;7.20;;;;;26.29;26.47;99060.56;5024329;28;8986;-64
2023/06/14 11:32:47;;;;;;;;;9.00;8.00;;;;;26.60;26.52;99059.53;5024199;28;8879;-65
2023/06/14 11:35:17;;;;;;;;;9.60;9.60;;;;;26.56;26.26;99068.91;4991665;28;8895;-65
2023/06/14 11:37:47;;;;;;;;;7.80;7.80;;;;;26.45;26.03;99070.72;5024254;28;8860;-64
2023/06/14 11:40:17;;;;;;;;;7.80;7.00;;;;;26.75;25.50;99052.66;5024530;28;9461;-65
2023/06/14 11:42:45;;;;;;;;;9.00;8.20;;;;;27.19;25.96;99052.91;5024652;28;9005;-63
2023/06/14 11:45:14;;;;;;;;;6.20;5.80;;;;;27.54;25.57;99064.72;5025875;28;8871;-66
2023/06/14 11:47:44;;;;;;;;;5.60;4.80;;;;;27.84;24.65;99051.88;5027654;28;9951;-67
2023/06/14 11:50:13;;;;;;;;;7.00;7.00;;;;;27.95;24.66;99043.50;5063103;28;8843;-66
2023/06/14 11:52:42;;;;;;;;;10.40;9.40;;;;;28.12;24.70;99054.47;5051375;28;8877;-66